sensor_id;sensor_type;location;lat;lon;timestamp;pressure;altitude;pressure_sealevel;temperature;humidity
56894;BME280;43392;50.078;13.704;2023-04-01T00:01:56;95367.16;;;8.34;87.34
56894;BME280;43392;50.078;13.704;2023-04-01T00:04:22;95351.94;;;8.34;87.21
56894;BME280;43392;50.078;13.704;2023-04-01T00:06:49;95358.84;;;8.35;87.06
56894;BME280;43392;50.078;13.704;2023-04-01T00:09:17;95356.19;;;8.35;86.81
56894;BME280;43392;50.078;13.704;2023-04-01T00:11:44;95348.94;;;8.36;87.06
56894;BME280;43392;50.078;13.704;2023-04-01T00:14:12;95353.22;;;8.37;86.79
56894;BME280;43392;50.078;13.704;2023-04-01T00:16:38;95354.00;;;8.37;86.64
56894;BME280;43392;50.078;13.704;2023-04-01T00:19:05;95352.41;;;8.36;86.89
56894;BME280;43392;50.078;13.704;2023-04-01T00:21:32;95346.59;;;8.34;86.68
56894;BME280;43392;50.078;13.704;2023-04-01T00:23:59;95344.22;;;8.33;86.72
56894;BME280;43392;50.078;13.704;2023-04-01T00:26:26;95333.53;;;8.33;86.76
56894;BME280;43392;50.078;13.704;2023-04-01T00:28:52;95347.97;;;8.32;87.09
56894;BME280;43392;50.078;13.704;2023-04-01T00:31:20;95342.63;;;8.32;87.08
56894;BME280;43392;50.078;13.704;2023-04-01T00:33:47;95347.19;;;8.31;86.96
56894;BME280;43392;50.078;13.704;2023-04-01T00:36:15;95351.72;;;8.31;87.05
56894;BME280;43392;50.078;13.704;2023-04-01T00:38:42;95340.56;;;8.29;87.02
56894;BME280;43392;50.078;13.704;2023-04-01T00:41:09;95342.16;;;8.30;86.95
56894;BME280;43392;50.078;13.704;2023-04-01T00:43:39;95347.47;;;8.30;86.87
56894;BME280;43392;50.078;13.704;2023-04-01T00:46:06;95357.06;;;8.31;86.71
56894;BME280;43392;50.078;13.704;2023-04-01T00:48:36;95357.84;;;8.31;86.90
56894;BME280;43392;50.078;13.704;2023-04-01T00:51:08;95354.38;;;8.31;86.94
56894;BME280;43392;50.078;13.704;2023-04-01T00:53:38;95367.75;;;8.31;86.74
56894;BME280;43392;50.078;13.704;2023-04-01T00:56:12;95361.31;;;8.32;86.81
56894;BME280;43392;50.078;13.704;2023-04-01T00:58:42;95353.31;;;8.32;86.69
56894;BME280;43392;50.078;13.704;2023-04-01T01:01:10;95354.38;;;8.31;86.63
56894;BME280;43392;50.078;13.704;2023-04-01T01:03:38;95346.38;;;8.31;87.00
56894;BME280;43392;50.078;13.704;2023-04-01T01:06:11;95345.91;;;8.29;86.88
56894;BME280;43392;50.078;13.704;2023-04-01T01:08:48;95342.72;;;8.27;86.80
56894;BME280;43392;50.078;13.704;2023-04-01T01:11:22;95352.81;;;8.30;87.02
56894;BME280;43392;50.078;13.704;2023-04-01T01:13:58;95351.53;;;8.27;86.93
56894;BME280;43392;50.078;13.704;2023-04-01T01:16:30;95339.28;;;8.26;87.01
56894;BME280;43392;50.078;13.704;2023-04-01T01:19:07;95343.03;;;8.25;87.35
56894;BME280;43392;50.078;13.704;2023-04-01T01:21:54;95347.56;;;8.25;87.13
56894;BME280;43392;50.078;13.704;2023-04-01T01:24:36;95334.22;;;8.25;87.32
56894;BME280;43392;50.078;13.704;2023-04-01T01:27:08;95339.06;;;8.23;87.31
56894;BME280;43392;50.078;13.704;2023-04-01T01:33:01;95334.53;;;8.23;87.16
56894;BME280;43392;50.078;13.704;2023-04-01T01:35:36;95338.75;;;8.24;87.04
56894;BME280;43392;50.078;13.704;2023-04-01T01:38:06;95329.94;;;8.24;87.12
56894;BME280;43392;50.078;13.704;2023-04-01T01:40:34;95327.28;;;8.24;87.15
56894;BME280;43392;50.078;13.704;2023-04-01T01:43:05;95322.84;;;8.19;87.26
56894;BME280;43392;50.078;13.704;2023-04-01T01:45:35;95339.88;;;8.23;86.89
56894;BME280;43392;50.078;13.704;2023-04-01T01:48:05;95343.28;;;8.24;86.93
56894;BME280;43392;50.078;13.704;2023-04-01T01:50:35;95334.22;;;8.25;86.93
56894;BME280;43392;50.078;13.704;2023-04-01T01:53:04;95334.53;;;8.23;86.67
56894;BME280;43392;50.078;13.704;2023-04-01T01:55:33;95339.28;;;8.26;86.48
56894;BME280;43392;50.078;13.704;2023-04-01T01:58:05;95333.66;;;8.28;86.51
56894;BME280;43392;50.078;13.704;2023-04-01T02:00:33;95335.22;;;8.29;86.41
56894;BME280;43392;50.078;13.704;2023-04-01T02:03:01;95337.13;;;8.28;86.04
56894;BME280;43392;50.078;13.704;2023-04-01T02:05:29;95331.78;;;8.28;86.16
56894;BME280;43392;50.078;13.704;2023-04-01T02:08:02;95334.13;;;8.30;85.94
56894;BME280;43392;50.078;13.704;2023-04-01T02:10:35;95336.00;;;8.29;85.79
56894;BME280;43392;50.078;13.704;2023-04-01T02:13:08;95331.16;;;8.31;85.61
56894;BME280;43392;50.078;13.704;2023-04-01T02:15:41;95338.09;;;8.32;85.58
56894;BME280;43392;50.078;13.704;2023-04-01T02:18:12;95336.50;;;8.31;85.28
56894;BME280;43392;50.078;13.704;2023-04-01T02:20:40;95338.09;;;8.32;85.52
56894;BME280;43392;50.078;13.704;2023-04-01T02:23:09;95323.94;;;8.32;85.15
56894;BME280;43392;50.078;13.704;2023-04-01T02:25:37;95338.09;;;8.32;84.87
56894;BME280;43392;50.078;13.704;2023-04-01T02:28:06;95330.66;;;8.29;84.66
56894;BME280;43392;50.078;13.704;2023-04-01T02:30:35;95338.56;;;8.34;84.64
56894;BME280;43392;50.078;13.704;2023-04-01T02:33:03;95344.41;;;8.36;84.35
56894;BME280;43392;50.078;13.704;2023-04-01T02:35:32;95348.94;;;8.36;83.86
56894;BME280;43392;50.078;13.704;2023-04-01T02:38:00;95337.19;;;8.37;84.01
56894;BME280;43392;50.078;13.704;2023-04-01T02:40:28;95346.78;;;8.38;84.24
56894;BME280;43392;50.078;13.704;2023-04-01T02:42:55;95348.34;;;8.39;83.81
56894;BME280;43392;50.078;13.704;2023-04-01T02:45:21;95349.94;;;8.40;83.38
56894;BME280;43392;50.078;13.704;2023-04-01T02:47:48;95356.38;;;8.39;83.58
56894;BME280;43392;50.078;13.704;2023-04-01T02:50:15;95343.81;;;8.39;83.52
56894;BME280;43392;50.078;13.704;2023-04-01T02:52:41;95359.84;;;8.39;83.52
56894;BME280;43392;50.078;13.704;2023-04-01T02:55:08;95368.63;;;8.40;83.56
56894;BME280;43392;50.078;13.704;2023-04-01T02:57:36;95362.19;;;8.41;83.68
56894;BME280;43392;50.078;13.704;2023-04-01T03:00:04;95373.66;;;8.41;83.25
56894;BME280;43392;50.078;13.704;2023-04-01T03:02:36;95373.38;;;8.43;83.22
56894;BME280;43392;50.078;13.704;2023-04-01T03:05:04;95365.97;;;8.40;83.31
56894;BME280;43392;50.078;13.704;2023-04-01T03:07:31;95370.81;;;8.38;83.12
56894;BME280;43392;50.078;13.704;2023-04-01T03:09:57;95375.06;;;8.39;82.40
56894;BME280;43392;50.078;13.704;2023-04-01T03:12:24;95371.91;;;8.37;82.67
56894;BME280;43392;50.078;13.704;2023-04-01T03:14:52;95377.25;;;8.37;82.63
56894;BME280;43392;50.078;13.704;2023-04-01T03:17:19;95383.97;;;8.34;82.75
56894;BME280;43392;50.078;13.704;2023-04-01T03:19:45;95379.44;;;8.35;82.75
56894;BME280;43392;50.078;13.704;2023-04-01T03:22:12;95380.50;;;8.34;82.65
56894;BME280;43392;50.078;13.704;2023-04-01T03:24:38;95369.34;;;8.32;82.67
56894;BME280;43392;50.078;13.704;2023-04-01T03:27:05;95384.88;;;8.30;82.75
56894;BME280;43392;50.078;13.704;2023-04-01T03:29:31;95381.09;;;8.31;82.44
56894;BME280;43392;50.078;13.704;2023-04-01T03:31:59;95383.47;;;8.32;82.71
56894;BME280;43392;50.078;13.704;2023-04-01T03:34:26;95377.03;;;8.33;82.60
56894;BME280;43392;50.078;13.704;2023-04-01T03:36:53;95382.38;;;8.33;82.51
56894;BME280;43392;50.078;13.704;2023-04-01T03:39:19;95388.81;;;8.32;82.63
56894;BME280;43392;50.078;13.704;2023-04-01T03:41:47;95387.22;;;8.31;82.51
56894;BME280;43392;50.078;13.704;2023-04-01T03:44:13;95380.59;;;8.29;82.82
56894;BME280;43392;50.078;13.704;2023-04-01T03:46:40;95388.03;;;8.32;82.41
56894;BME280;43392;50.078;13.704;2023-04-01T03:49:09;95394.97;;;8.33;82.32
56894;BME280;43392;50.078;13.704;2023-04-01T03:51:37;95384.38;;;8.28;82.41
56894;BME280;43392;50.078;13.704;2023-04-01T03:54:03;95396.03;;;8.32;82.17
56894;BME280;43392;50.078;13.704;2023-04-01T03:56:30;95394.97;;;8.33;82.33
56894;BME280;43392;50.078;13.704;2023-04-01T03:58:57;95386.75;;;8.29;82.57
56894;BME280;43392;50.078;13.704;2023-04-01T04:01:23;95384.06;;;8.29;82.56
56894;BME280;43392;50.078;13.704;2023-04-01T04:03:50;95388.03;;;8.32;82.33
56894;BME280;43392;50.078;13.704;2023-04-01T04:06:19;95393.69;;;8.30;82.49
56894;BME280;43392;50.078;13.704;2023-04-01T04:08:46;95389.72;;;8.28;82.76
56894;BME280;43392;50.078;13.704;2023-04-01T04:11:12;95395.06;;;8.28;82.86
56894;BME280;43392;50.078;13.704;2023-04-01T04:13:39;95391.09;;;8.25;82.84
56894;BME280;43392;50.078;13.704;2023-04-01T04:16:06;95399.09;;;8.25;83.03
56894;BME280;43392;50.078;13.704;2023-04-01T04:18:33;95403.16;;;8.36;85.44
56894;BME280;43392;50.078;13.704;2023-04-01T04:21:00;95403.75;;;8.47;83.43
56894;BME280;43392;50.078;13.704;2023-04-01T04:23:28;95403.53;;;8.43;83.04
56894;BME280;43392;50.078;13.704;2023-04-01T04:25:57;95406.63;;;8.37;83.25
56894;BME280;43392;50.078;13.704;2023-04-01T04:28:24;95399.78;;;8.31;83.22
56894;BME280;43392;50.078;13.704;2023-04-01T04:30:51;95417.50;;;8.27;83.84
56894;BME280;43392;50.078;13.704;2023-04-01T04:33:18;95415.38;;;8.24;83.88
56894;BME280;43392;50.078;13.704;2023-04-01T04:35:45;95415.91;;;8.26;83.91
56894;BME280;43392;50.078;13.704;2023-04-01T04:38:11;95412.97;;;8.27;83.53
56894;BME280;43392;50.078;13.704;2023-04-01T04:40:40;95422.41;;;8.74;84.86
56894;BME280;43392;50.078;13.704;2023-04-01T04:43:10;95419.41;;;8.76;82.80
56894;BME280;43392;50.078;13.704;2023-04-01T04:45:37;95423.91;;;8.66;82.77
56894;BME280;43392;50.078;13.704;2023-04-01T04:48:04;95419.06;;;8.55;82.72
56894;BME280;43392;50.078;13.704;2023-04-01T04:50:30;95418.50;;;8.44;83.01
56894;BME280;43392;50.078;13.704;2023-04-01T04:52:57;95419.97;;;8.37;83.35
56894;BME280;43392;50.078;13.704;2023-04-01T04:55:23;95420.88;;;8.32;83.40
56894;BME280;43392;50.078;13.704;2023-04-01T04:57:51;95423.34;;;8.29;83.96
56894;BME280;43392;50.078;13.704;2023-04-01T05:00:18;95413.25;;;8.26;83.88
56894;BME280;43392;50.078;13.704;2023-04-01T05:02:45;95413.25;;;8.26;84.06
56894;BME280;43392;50.078;13.704;2023-04-01T05:05:11;95413.81;;;8.23;84.46
56894;BME280;43392;50.078;13.704;2023-04-01T05:07:38;95420.56;;;8.20;84.54
56894;BME280;43392;50.078;13.704;2023-04-01T05:10:05;95425.91;;;8.20;84.37
56894;BME280;43392;50.078;13.704;2023-04-01T05:12:32;95428.84;;;8.19;84.76
56894;BME280;43392;50.078;13.704;2023-04-01T05:15:03;95420.84;;;8.19;84.77
56894;BME280;43392;50.078;13.704;2023-04-01T05:17:30;95434.19;;;8.19;84.81
56894;BME280;43392;50.078;13.704;2023-04-01T05:19:56;95425.41;;;8.18;84.75
56894;BME280;43392;50.078;13.704;2023-04-01T05:22:23;95429.34;;;8.21;84.79
56894;BME280;43392;50.078;13.704;2023-04-01T05:24:49;95436.25;;;8.22;84.82
56894;BME280;43392;50.078;13.704;2023-04-01T05:27:16;95436.25;;;8.22;84.93
56894;BME280;43392;50.078;13.704;2023-04-01T05:29:43;95434.41;;;8.22;85.09
56894;BME280;43392;50.078;13.704;2023-04-01T05:32:11;95437.06;;;8.22;85.07
56894;BME280;43392;50.078;13.704;2023-04-01T05:34:37;95440.53;;;8.23;85.08
56894;BME280;43392;50.078;13.704;2023-04-01T05:37:04;95430.66;;;8.23;85.32
56894;BME280;43392;50.078;13.704;2023-04-01T05:39:35;95436.75;;;8.24;85.35
56894;BME280;43392;50.078;13.704;2023-04-01T05:42:02;95438.66;;;8.23;85.32
56894;BME280;43392;50.078;13.704;2023-04-01T05:44:29;95434.09;;;8.24;85.24
56894;BME280;43392;50.078;13.704;2023-04-01T05:46:56;95436.75;;;8.24;84.92
56894;BME280;43392;50.078;13.704;2023-04-01T05:49:24;95432.22;;;8.24;85.29
56894;BME280;43392;50.078;13.704;2023-04-01T05:51:50;95441.53;;;8.27;84.95
56894;BME280;43392;50.078;13.704;2023-04-01T05:54:17;95428.69;;;8.29;85.01
56894;BME280;43392;50.078;13.704;2023-04-01T05:56:44;95446.78;;;8.32;84.84
56894;BME280;43392;50.078;13.704;2023-04-01T05:59:11;95436.59;;;8.34;84.68
56894;BME280;43392;50.078;13.704;2023-04-01T06:01:38;95442.94;;;8.38;84.62
56894;BME280;43392;50.078;13.704;2023-04-01T06:04:05;95448.19;;;8.43;84.63
56894;BME280;43392;50.078;13.704;2023-04-01T06:06:33;95441.13;;;8.47;84.41
56894;BME280;43392;50.078;13.704;2023-04-01T06:09:10;95438.66;;;8.50;84.21
56894;BME280;43392;50.078;13.704;2023-04-01T06:11:46;95447.94;;;8.53;83.85
56894;BME280;43392;50.078;13.704;2023-04-01T06:14:28;95441.53;;;8.54;83.98
56894;BME280;43392;50.078;13.704;2023-04-01T06:17:12;95458.03;;;8.56;83.76
56894;BME280;43392;50.078;13.704;2023-04-01T06:19:41;95450.03;;;8.56;83.92
56894;BME280;43392;50.078;13.704;2023-04-01T06:22:23;95444.69;;;8.56;83.71
56894;BME280;43392;50.078;13.704;2023-04-01T06:25:04;95451.31;;;8.58;83.80
56894;BME280;43392;50.078;13.704;2023-04-01T06:27:47;95463.28;;;8.61;83.45
56894;BME280;43392;50.078;13.704;2023-04-01T06:30:35;95461.59;;;8.65;83.59
56894;BME280;43392;50.078;13.704;2023-04-01T06:33:14;95462.69;;;8.64;83.43
56894;BME280;43392;50.078;13.704;2023-04-01T06:35:55;95455.66;;;8.68;83.28
56894;BME280;43392;50.078;13.704;2023-04-01T06:38:41;95462.59;;;8.69;83.42
56894;BME280;43392;50.078;13.704;2023-04-01T06:44:16;95461.38;;;8.75;83.21
56894;BME280;43392;50.078;13.704;2023-04-01T06:46:45;95467.53;;;8.76;83.17
56894;BME280;43392;50.078;13.704;2023-04-01T06:52:16;95475.75;;;8.79;82.99
56894;BME280;43392;50.078;13.704;2023-04-01T06:54:49;95453.94;;;8.72;83.03
56894;BME280;43392;50.078;13.704;2023-04-01T06:57:23;95468.88;;;8.87;82.86
56894;BME280;43392;50.078;13.704;2023-04-01T06:59:54;95476.59;;;8.88;82.60
56894;BME280;43392;50.078;13.704;2023-04-01T07:02:27;95477.09;;;8.90;82.58
56894;BME280;43392;50.078;13.704;2023-04-01T07:04:55;95471.16;;;8.93;82.34
56894;BME280;43392;50.078;13.704;2023-04-01T07:07:29;95476.41;;;8.98;82.26
56894;BME280;43392;50.078;13.704;2023-04-01T07:10:00;95465.06;;;9.01;81.92
56894;BME280;43392;50.078;13.704;2023-04-01T07:12:31;95471.59;;;9.09;81.74
56894;BME280;43392;50.078;13.704;2023-04-01T07:15:03;95467.66;;;9.28;81.36
56894;BME280;43392;50.078;13.704;2023-04-01T07:17:33;95473.16;;;9.46;80.67
56894;BME280;43392;50.078;13.704;2023-04-01T07:20:10;95463.03;;;9.65;80.10
56894;BME280;43392;50.078;13.704;2023-04-01T07:22:42;95460.13;;;9.75;79.82
56894;BME280;43392;50.078;13.704;2023-04-01T07:25:14;95463.63;;;9.84;79.27
56894;BME280;43392;50.078;13.704;2023-04-01T07:27:41;95461.22;;;10.05;78.83
56894;BME280;43392;50.078;13.704;2023-04-01T07:30:14;95463.34;;;10.16;78.64
56894;BME280;43392;50.078;13.704;2023-04-01T07:32:44;95462.44;;;10.21;78.75
56894;BME280;43392;50.078;13.704;2023-04-01T07:35:20;95464.97;;;10.26;78.39
56894;BME280;43392;50.078;13.704;2023-04-01T07:38:02;95470.00;;;10.27;78.65
56894;BME280;43392;50.078;13.704;2023-04-01T07:40:41;95465.78;;;10.26;78.21
56894;BME280;43392;50.078;13.704;2023-04-01T07:43:22;95467.78;;;10.21;77.77
56894;BME280;43392;50.078;13.704;2023-04-01T07:45:58;95465.44;;;10.19;77.72
56894;BME280;43392;50.078;13.704;2023-04-01T07:48:35;95460.69;;;10.16;77.79
56894;BME280;43392;50.078;13.704;2023-04-01T07:51:08;95480.53;;;10.15;77.68
56894;BME280;43392;50.078;13.704;2023-04-01T07:53:45;95473.75;;;10.18;77.73
56894;BME280;43392;50.078;13.704;2023-04-01T07:56:18;95480.88;;;10.22;77.75
56894;BME280;43392;50.078;13.704;2023-04-01T07:58:54;95482.31;;;10.28;77.54
56894;BME280;43392;50.078;13.704;2023-04-01T08:01:30;95481.13;;;10.43;77.06
56894;BME280;43392;50.078;13.704;2023-04-01T08:04:16;95468.84;;;10.50;76.22
56894;BME280;43392;50.078;13.704;2023-04-01T08:06:52;95478.50;;;10.60;76.26
56894;BME280;43392;50.078;13.704;2023-04-01T08:09:26;95478.59;;;10.46;73.25
56894;BME280;43392;50.078;13.704;2023-04-01T08:12:05;95489.03;;;10.48;73.81
56894;BME280;43392;50.078;13.704;2023-04-01T08:14:46;95481.97;;;10.60;74.79
56894;BME280;43392;50.078;13.704;2023-04-01T08:17:18;95488.16;;;10.70;73.93
56894;BME280;43392;50.078;13.704;2023-04-01T08:19:56;95494.59;;;10.68;73.90
56894;BME280;43392;50.078;13.704;2023-04-01T08:22:33;95490.81;;;10.70;74.74
56894;BME280;43392;50.078;13.704;2023-04-01T08:25:05;95498.72;;;10.75;73.90
56894;BME280;43392;50.078;13.704;2023-04-01T08:27:37;95495.72;;;10.76;73.51
56894;BME280;43392;50.078;13.704;2023-04-01T08:30:17;95494.50;;;10.82;73.24
56894;BME280;43392;50.078;13.704;2023-04-01T08:32:47;95491.66;;;10.87;72.61
56894;BME280;43392;50.078;13.704;2023-04-01T08:35:20;95492.31;;;11.01;74.43
56894;BME280;43392;50.078;13.704;2023-04-01T08:37:49;95496.75;;;11.23;71.67
56894;BME280;43392;50.078;13.704;2023-04-01T08:40:33;95498.81;;;11.26;72.14
56894;BME280;43392;50.078;13.704;2023-04-01T08:43:09;95493.94;;;11.28;72.39
56894;BME280;43392;50.078;13.704;2023-04-01T08:45:52;95490.59;;;11.40;70.00
56894;BME280;43392;50.078;13.704;2023-04-01T08:51:45;95490.47;;;11.19;69.80
56894;BME280;43392;50.078;13.704;2023-04-01T08:54:29;95483.66;;;11.13;69.14
56894;BME280;43392;50.078;13.704;2023-04-01T08:57:04;95484.13;;;11.06;68.32
56894;BME280;43392;50.078;13.704;2023-04-01T08:59:48;95496.75;;;11.06;68.05
56894;BME280;43392;50.078;13.704;2023-04-01T09:02:49;95494.06;;;11.06;68.73
56894;BME280;43392;50.078;13.704;2023-04-01T09:05:40;95501.78;;;11.07;68.72
56894;BME280;43392;50.078;13.704;2023-04-01T09:08:21;95503.03;;;11.10;68.71
56894;BME280;43392;50.078;13.704;2023-04-01T09:11:12;95504.03;;;11.14;67.39
56894;BME280;43392;50.078;13.704;2023-04-01T09:13:59;95512.06;;;11.14;67.28
56894;BME280;43392;50.078;13.704;2023-04-01T09:16:45;95500.03;;;11.03;64.93
56894;BME280;43392;50.078;13.704;2023-04-01T09:19:28;95508.53;;;10.88;68.30
56894;BME280;43392;50.078;13.704;2023-04-01T09:22:13;95517.41;;;10.97;68.92
56894;BME280;43392;50.078;13.704;2023-04-01T09:25:24;95517.88;;;11.07;68.72
56894;BME280;43392;50.078;13.704;2023-04-01T09:28:01;95513.13;;;10.96;69.02
56894;BME280;43392;50.078;13.704;2023-04-01T09:30:48;95513.94;;;11.05;69.01
56894;BME280;43392;50.078;13.704;2023-04-01T09:33:52;95514.44;;;11.32;69.34
56894;BME280;43392;50.078;13.704;2023-04-01T09:36:38;95508.28;;;11.66;69.73
56894;BME280;43392;50.078;13.704;2023-04-01T09:39:23;95516.84;;;11.85;68.76
56894;BME280;43392;50.078;13.704;2023-04-01T09:42:06;95518.25;;;11.91;68.22
56894;BME280;43392;50.078;13.704;2023-04-01T09:44:35;95521.09;;;11.95;67.74
56894;BME280;43392;50.078;13.704;2023-04-01T09:47:13;95515.72;;;11.95;67.55
56894;BME280;43392;50.078;13.704;2023-04-01T09:49:55;95525.38;;;11.70;66.49
56894;BME280;43392;50.078;13.704;2023-04-01T09:52:31;95524.88;;;11.60;67.79
56894;BME280;43392;50.078;13.704;2023-04-01T09:55:14;95523.44;;;11.54;66.89
56894;BME280;43392;50.078;13.704;2023-04-01T09:58:12;95529.44;;;11.25;66.63
56894;BME280;43392;50.078;13.704;2023-04-01T10:10:32;95520.59;;;11.84;67.69
56894;BME280;43392;50.078;13.704;2023-04-01T10:19:55;95535.91;;;11.58;67.26
56894;BME280;43392;50.078;13.704;2023-04-01T10:25:40;95519.81;;;11.67;65.58
56894;BME280;43392;50.078;13.704;2023-04-01T10:31:28;95528.69;;;11.76;65.46
56894;BME280;43392;50.078;13.704;2023-04-01T10:37:36;95514.88;;;12.12;65.90
56894;BME280;43392;50.078;13.704;2023-04-01T10:40:54;95518.06;;;11.96;64.31
56894;BME280;43392;50.078;13.704;2023-04-01T10:46:52;95507.50;;;11.57;66.49
56894;BME280;43392;50.078;13.704;2023-04-01T10:49:44;95513.38;;;11.68;67.33
56894;BME280;43392;50.078;13.704;2023-04-01T10:55:37;95516.84;;;11.85;65.88
56894;BME280;43392;50.078;13.704;2023-04-01T10:58:42;95509.72;;;11.72;65.94
56894;BME280;43392;50.078;13.704;2023-04-01T11:01:27;95510.34;;;11.78;64.33
56894;BME280;43392;50.078;13.704;2023-04-01T11:04:37;95513.66;;;11.75;64.60
56894;BME280;43392;50.078;13.704;2023-04-01T11:11:02;95505.16;;;11.81;65.61
56894;BME280;43392;50.078;13.704;2023-04-01T11:14:18;95508.94;;;11.80;65.44
56894;BME280;43392;50.078;13.704;2023-04-01T11:17:13;95509.88;;;11.84;64.58
56894;BME280;43392;50.078;13.704;2023-04-01T11:20:02;95513.97;;;11.90;65.25
56894;BME280;43392;50.078;13.704;2023-04-01T11:26:04;95505.84;;;12.16;66.21
56894;BME280;43392;50.078;13.704;2023-04-01T11:28:51;95519.41;;;12.28;65.58
56894;BME280;43392;50.078;13.704;2023-04-01T11:31:44;95516.25;;;12.35;65.43
56894;BME280;43392;50.078;13.704;2023-04-01T11:34:33;95512.59;;;12.39;65.12
56894;BME280;43392;50.078;13.704;2023-04-01T11:37:10;95501.81;;;12.48;65.36
56894;BME280;43392;50.078;13.704;2023-04-01T11:39:46;95504.44;;;12.65;65.53
56894;BME280;43392;50.078;13.704;2023-04-01T11:42:23;95500.91;;;12.73;64.76
56894;BME280;43392;50.078;13.704;2023-04-01T11:44:58;95504.13;;;12.67;63.19
56894;BME280;43392;50.078;13.704;2023-04-01T11:47:52;95500.34;;;12.59;64.22
56894;BME280;43392;50.078;13.704;2023-04-01T11:50:28;95505.69;;;12.68;63.93
56894;BME280;43392;50.078;13.704;2023-04-01T11:53:13;95511.78;;;12.85;64.50
56894;BME280;43392;50.078;13.704;2023-04-01T11:55:53;95513.34;;;12.86;62.88
56894;BME280;43392;50.078;13.704;2023-04-01T11:58:31;95503.53;;;12.90;63.91
56894;BME280;43392;50.078;13.704;2023-04-01T12:01:14;95502.34;;;13.00;63.47
56894;BME280;43392;50.078;13.704;2023-04-01T12:04:03;95499.69;;;12.91;62.67
56894;BME280;43392;50.078;13.704;2023-04-01T12:06:37;95513.50;;;12.90;63.11
56894;BME280;43392;50.078;13.704;2023-04-01T12:09:11;95504.91;;;12.96;61.40
56894;BME280;43392;50.078;13.704;2023-04-01T12:11:46;95508.19;;;13.02;62.37
56894;BME280;43392;50.078;13.704;2023-04-01T12:14:20;95496.06;;;12.96;62.11
56894;BME280;43392;50.078;13.704;2023-04-01T12:16:55;95506.75;;;13.04;62.66
56894;BME280;43392;50.078;13.704;2023-04-01T12:19:33;95510.72;;;13.07;60.89
56894;BME280;43392;50.078;13.704;2023-04-01T12:22:23;95523.09;;;12.99;62.75
56894;BME280;43392;50.078;13.704;2023-04-01T12:25:06;95509.19;;;12.97;62.76
56894;BME280;43392;50.078;13.704;2023-04-01T12:27:42;95506.34;;;12.94;61.27
56894;BME280;43392;50.078;13.704;2023-04-01T12:30:24;95513.22;;;12.83;61.76
56894;BME280;43392;50.078;13.704;2023-04-01T12:33:04;95507.03;;;12.82;62.76
56894;BME280;43392;50.078;13.704;2023-04-01T12:35:51;95507.66;;;12.88;62.61
56894;BME280;43392;50.078;13.704;2023-04-01T12:38:30;95510.00;;;12.89;61.48
56894;BME280;43392;50.078;13.704;2023-04-01T12:41:08;95512.69;;;12.89;62.59
56894;BME280;43392;50.078;13.704;2023-04-01T12:46:42;95512.72;;;13.18;62.55
56894;BME280;43392;50.078;13.704;2023-04-01T12:49:29;95507.94;;;13.24;61.80
56894;BME280;43392;50.078;13.704;2023-04-01T12:52:04;95516.53;;;13.17;61.55
56894;BME280;43392;50.078;13.704;2023-04-01T13:01:09;95512.69;;;12.89;65.14
56894;BME280;43392;50.078;13.704;2023-04-01T13:04:08;95512.19;;;12.96;64.56
56894;BME280;43392;50.078;13.704;2023-04-01T13:06:53;95515.47;;;13.01;62.72
56894;BME280;43392;50.078;13.704;2023-04-01T13:09:34;95512.25;;;13.16;63.25
56894;BME280;43392;50.078;13.704;2023-04-01T13:12:24;95508.00;;;13.36;63.21
56894;BME280;43392;50.078;13.704;2023-04-01T13:15:08;95511.81;;;13.56;63.12
56894;BME280;43392;50.078;13.704;2023-04-01T13:17:41;95512.00;;;13.71;62.46
56894;BME280;43392;50.078;13.704;2023-04-01T13:20:20;95512.94;;;13.75;61.94
56894;BME280;43392;50.078;13.704;2023-04-01T13:23:00;95516.63;;;13.71;61.89
56894;BME280;43392;50.078;13.704;2023-04-01T13:25:36;95517.47;;;13.63;60.87
56894;BME280;43392;50.078;13.704;2023-04-01T13:28:11;95534.22;;;13.48;60.30
56894;BME280;43392;50.078;13.704;2023-04-01T13:30:44;95528.81;;;13.27;59.69
56894;BME280;43392;50.078;13.704;2023-04-01T13:33:19;95535.75;;;12.99;60.88
56894;BME280;43392;50.078;13.704;2023-04-01T13:36:01;95540.56;;;12.85;61.62
56894;BME280;43392;50.078;13.704;2023-04-01T13:38:51;95536.00;;;12.77;62.35
56894;BME280;43392;50.078;13.704;2023-04-01T13:41:34;95536.34;;;12.75;62.32
56894;BME280;43392;50.078;13.704;2023-04-01T13:44:09;95532.72;;;12.71;62.44
56894;BME280;43392;50.078;13.704;2023-04-01T13:46:54;95540.63;;;12.76;63.26
56894;BME280;43392;50.078;13.704;2023-04-01T13:55:31;95546.06;;;12.59;62.25
56894;BME280;43392;50.078;13.704;2023-04-01T13:58:40;95543.25;;;12.47;63.32
56894;BME280;43392;50.078;13.704;2023-04-01T14:01:15;95547.03;;;12.54;63.66
56894;BME280;43392;50.078;13.704;2023-04-01T14:04:03;95538.31;;;12.57;64.98
56894;BME280;43392;50.078;13.704;2023-04-01T14:06:43;95548.44;;;12.60;64.72
56894;BME280;43392;50.078;13.704;2023-04-01T14:09:33;95543.84;;;12.61;63.68
56894;BME280;43392;50.078;13.704;2023-04-01T14:12:05;95542.25;;;12.69;63.80
56894;BME280;43392;50.078;13.704;2023-04-01T14:14:50;95532.72;;;12.71;63.40
56894;BME280;43392;50.078;13.704;2023-04-01T14:17:29;95541.38;;;12.77;63.30
56894;BME280;43392;50.078;13.704;2023-04-01T14:20:22;95540.13;;;12.74;61.92
56894;BME280;43392;50.078;13.704;2023-04-01T14:23:08;95537.72;;;12.52;61.93
56894;BME280;43392;50.078;13.704;2023-04-01T14:26:02;95540.53;;;12.55;63.36
56894;BME280;43392;50.078;13.704;2023-04-01T14:28:35;95542.53;;;12.67;63.34
56894;BME280;43392;50.078;13.704;2023-04-01T14:31:20;95549.97;;;12.70;62.69
56894;BME280;43392;50.078;13.704;2023-04-01T14:33:59;95541.72;;;12.75;63.08
56894;BME280;43392;50.078;13.704;2023-04-01T14:36:43;95549.97;;;12.70;63.11
56894;BME280;43392;50.078;13.704;2023-04-01T14:39:26;95553.16;;;12.63;63.26
56894;BME280;43392;50.078;13.704;2023-04-01T14:42:07;95564.09;;;12.50;62.99
56894;BME280;43392;50.078;13.704;2023-04-01T14:44:53;95555.78;;;12.34;62.54